createdAt,value
2019-05-11T00:00:24.229Z,28.57
2019-05-11T00:02:29.359Z,26.73
2019-05-11T00:04:34.536Z,25.73
2019-05-11T00:06:39.957Z,28.30
2019-05-11T00:08:45.098Z,27.53
2019-05-11T00:10:50.305Z,28.10
2019-05-11T00:12:55.773Z,27.47
2019-05-11T00:15:01.237Z,28.80
2019-05-11T00:17:06.749Z,28.93
2019-05-11T00:19:12.373Z,29.20
2019-05-11T00:21:17.803Z,29.10
2019-05-11T00:23:22.983Z,31.90
2019-05-11T00:25:28.576Z,27.20
2019-05-11T00:27:33.840Z,28.17
2019-05-11T00:29:39.102Z,28.00
2019-05-11T00:31:44.780Z,26.90
2019-05-11T00:33:50.364Z,27.37
2019-05-11T00:35:55.929Z,28.90
2019-05-11T00:38:01.031Z,29.70
2019-05-11T00:40:14.283Z,28.63
2019-05-11T00:42:13.926Z,29.27
2019-05-11T00:44:18.927Z,29.60
2019-05-11T00:46:23.931Z,30.60
2019-05-11T00:48:29.134Z,28.80
2019-05-11T00:50:39.166Z,28.63
2019-05-11T00:52:42.439Z,30.47
2019-05-11T00:54:47.677Z,30.30
2019-05-11T00:56:53.183Z,28.90
2019-05-11T00:58:58.273Z,29.82
2019-05-11T01:01:03.438Z,27.80
2019-05-11T01:03:08.611Z,26.77
2019-05-11T01:05:13.851Z,26.70
2019-05-11T01:07:18.971Z,28.87
2019-05-11T01:09:24.863Z,29.93
2019-05-11T01:11:29.894Z,26.70
2019-05-11T01:13:35.069Z,29.00
2019-05-11T01:15:40.148Z,28.50
2019-05-11T01:17:45.185Z,29.23
2019-05-11T01:19:50.516Z,28.37
2019-05-11T01:21:56.273Z,28.57
2019-05-11T01:24:01.358Z,28.90
2019-05-11T01:26:06.593Z,29.40
2019-05-11T01:28:11.780Z,28.73
2019-05-11T01:30:17.493Z,28.33
2019-05-11T01:32:22.459Z,29.70
2019-05-11T01:34:27.865Z,27.87
2019-05-11T01:36:33.007Z,27.00
2019-05-11T01:38:38.235Z,28.83
2019-05-11T01:40:57.664Z,28.70
2019-05-11T01:42:50.223Z,29.13
2019-05-11T01:44:55.276Z,29.00
2019-05-11T01:47:00.752Z,28.67
2019-05-11T01:49:06.059Z,28.93
2019-05-11T01:51:11.183Z,29.60
2019-05-11T01:53:16.503Z,28.97
2019-05-11T01:55:21.581Z,28.50
2019-05-11T01:57:26.624Z,30.30
2019-05-11T01:59:31.834Z,30.87
2019-05-11T02:01:36.894Z,28.80
2019-05-11T02:03:42.066Z,29.60
2019-05-11T02:05:47.080Z,29.00
2019-05-11T02:07:52.155Z,30.37
2019-05-11T02:09:57.084Z,28.30
2019-05-11T02:12:02.220Z,29.90
2019-05-11T02:14:07.236Z,30.53
2019-05-11T02:16:12.508Z,30.27
2019-05-11T02:18:17.859Z,30.37
2019-05-11T02:20:23.093Z,30.10
2019-05-11T02:22:28.242Z,30.77
2019-05-11T02:24:33.402Z,28.53
2019-05-11T02:26:38.461Z,30.30
2019-05-11T02:28:43.461Z,31.10
2019-05-11T02:30:48.714Z,29.63
2019-05-11T02:32:53.895Z,30.10
2019-05-11T02:34:59.130Z,29.60
2019-05-11T02:37:04.261Z,30.23
2019-05-11T02:39:09.979Z,30.80
2019-05-11T02:41:34.151Z,31.40
2019-05-11T02:43:21.891Z,30.30
2019-05-11T02:45:45.112Z,29.50
2019-05-11T02:47:50.265Z,32.33
2019-05-11T02:49:55.430Z,31.93
2019-05-11T02:52:00.993Z,32.43
2019-05-11T02:54:06.454Z,30.90
2019-05-11T02:56:11.565Z,29.77
2019-05-11T02:58:16.593Z,32.73
2019-05-11T03:00:25.275Z,31.50
2019-05-11T03:02:30.713Z,33.13
2019-05-11T03:04:35.848Z,33.07
2019-05-11T03:06:40.909Z,31.47
2019-05-11T03:08:46.134Z,30.47
2019-05-11T03:10:51.293Z,32.50
2019-05-11T03:12:56.515Z,30.77
2019-05-11T03:15:01.738Z,31.67
2019-05-11T03:17:14.019Z,33.20
2019-05-11T03:19:19.121Z,32.20
2019-05-11T03:21:24.329Z,31.43
2019-05-11T03:23:29.465Z,32.57
2019-05-11T03:25:34.593Z,32.47
2019-05-11T03:27:39.808Z,32.43
2019-05-11T03:29:44.966Z,34.67
2019-05-11T03:31:50.178Z,32.07
2019-05-11T03:33:55.335Z,29.40
2019-05-11T03:36:00.444Z,33.30
2019-05-11T03:38:05.773Z,31.93
2019-05-11T03:40:11.214Z,31.20
2019-05-11T03:42:16.276Z,31.40
2019-05-11T03:44:21.729Z,31.93
2019-05-11T03:46:26.833Z,33.70
2019-05-11T03:48:31.878Z,33.17
2019-05-11T03:50:37.146Z,32.20
2019-05-11T03:52:42.246Z,31.67
2019-05-11T03:54:47.795Z,32.63
2019-05-11T03:56:52.903Z,35.20
2019-05-11T03:58:58.176Z,34.90
2019-05-11T04:01:03.384Z,34.20
2019-05-11T04:03:08.621Z,31.70
2019-05-11T04:05:14.099Z,34.30
2019-05-11T04:07:19.913Z,34.43
2019-05-11T04:09:25.353Z,35.63
2019-05-11T04:11:30.506Z,34.10
2019-05-11T04:13:35.728Z,35.07
2019-05-11T04:15:41.117Z,34.37
2019-05-11T04:17:46.271Z,33.67
2019-05-11T04:19:51.739Z,33.90
2019-05-11T04:21:56.794Z,33.60
2019-05-11T04:24:02.013Z,33.87
2019-05-11T04:26:07.224Z,34.60
2019-05-11T04:28:12.394Z,34.20
2019-05-11T04:30:17.796Z,32.63
2019-05-11T04:32:22.968Z,32.30
2019-05-11T04:34:28.202Z,33.77
2019-05-11T04:36:33.320Z,35.37
2019-05-11T04:38:38.471Z,34.73
2019-05-11T04:40:43.697Z,33.67
2019-05-11T04:42:54.863Z,34.33
2019-05-11T04:44:55.528Z,32.60
2019-05-11T04:47:00.616Z,34.80
2019-05-11T04:49:05.786Z,34.00
2019-05-11T04:51:11.018Z,33.30
2019-05-11T04:53:16.182Z,33.83
2019-05-11T04:55:21.400Z,34.73
2019-05-11T04:57:26.632Z,35.00
2019-05-11T04:59:31.569Z,34.30
2019-05-11T05:01:36.772Z,34.53
2019-05-11T05:03:47.489Z,34.47
2019-05-11T05:05:49.605Z,33.90
2019-05-11T05:08:08.484Z,32.80
2019-05-11T05:10:01.435Z,33.30
2019-05-11T05:12:08.578Z,34.00
2019-05-11T05:14:13.493Z,33.60
2019-05-11T05:16:19.084Z,34.20
2019-05-11T05:18:27.553Z,34.60
2019-05-11T05:20:32.958Z,35.30
2019-05-11T05:22:38.102Z,34.83
2019-05-11T05:24:42.883Z,34.27
2019-05-11T05:26:47.915Z,35.17
2019-05-11T05:28:52.681Z,36.30
2019-05-11T05:30:57.436Z,35.50
2019-05-11T05:33:02.204Z,33.83
2019-05-11T05:35:07.161Z,35.63
2019-05-11T05:37:12.771Z,35.83
2019-05-11T05:39:17.981Z,34.23
2019-05-11T05:41:22.930Z,35.13
2019-05-11T05:43:28.683Z,35.40
2019-05-11T05:45:33.818Z,37.37
2019-05-11T05:47:39.120Z,36.03
2019-05-11T05:49:44.035Z,37.87
2019-05-11T05:51:49.016Z,34.57
2019-05-11T05:53:54.654Z,32.10
2019-05-11T05:56:02.600Z,33.60
2019-05-11T05:58:09.595Z,32.00
2019-05-11T06:00:15.591Z,30.70
2019-05-11T06:02:20.504Z,30.57
2019-05-11T06:04:26.585Z,32.30
2019-05-11T06:06:31.664Z,29.47
2019-05-11T06:08:36.810Z,30.00
2019-05-11T06:10:41.867Z,29.70
2019-05-11T06:12:47.074Z,28.73
2019-05-11T06:14:53.362Z,29.33
2019-05-11T06:16:58.687Z,28.87
2019-05-11T06:19:03.914Z,31.10
2019-05-11T06:21:08.919Z,30.63
2019-05-11T06:23:14.403Z,29.33
2019-05-11T06:25:19.481Z,28.73
2019-05-11T06:27:24.464Z,30.63
2019-05-11T06:29:36.160Z,30.20
2019-05-11T06:31:41.417Z,30.37
2019-05-11T06:33:46.485Z,30.03
2019-05-11T06:35:51.882Z,30.47
2019-05-11T06:37:57.286Z,30.70
2019-05-11T06:40:02.702Z,30.67
2019-05-11T06:42:07.757Z,34.07
2019-05-11T06:44:18.731Z,31.43
2019-05-11T06:46:23.983Z,31.63
2019-05-11T06:48:30.363Z,31.83
2019-05-11T06:50:35.738Z,30.60
2019-05-11T06:52:40.954Z,30.43
2019-05-11T06:54:46.192Z,30.70
2019-05-11T06:56:51.270Z,29.67
2019-05-11T06:58:56.632Z,30.70
2019-05-11T07:01:01.817Z,31.77
2019-05-11T07:03:07.022Z,31.50
2019-05-11T07:05:13.833Z,29.63
2019-05-11T07:07:19.840Z,30.90
2019-05-11T07:09:25.180Z,31.37
2019-05-11T07:11:30.802Z,29.87
2019-05-11T07:13:35.953Z,32.13
2019-05-11T07:15:41.164Z,30.40
2019-05-11T07:17:46.269Z,30.67
2019-05-11T07:19:51.701Z,30.70
2019-05-11T07:21:56.815Z,31.03
2019-05-11T07:24:01.903Z,31.67
2019-05-11T07:26:07.155Z,30.33
2019-05-11T07:28:12.423Z,30.40
2019-05-11T07:30:18.843Z,30.80
2019-05-11T07:32:26.084Z,31.60
2019-05-11T07:34:30.587Z,31.60
2019-05-11T07:36:35.780Z,32.60
2019-05-11T07:38:40.944Z,32.87
2019-05-11T07:40:47.660Z,33.10
2019-05-11T07:42:52.826Z,31.60
2019-05-11T07:44:58.552Z,30.80
2019-05-11T07:47:04.001Z,32.63
2019-05-11T07:49:08.918Z,30.57
2019-05-11T07:51:13.909Z,30.63
2019-05-11T07:53:19.693Z,30.33
2019-05-11T07:55:28.161Z,28.37
2019-05-11T07:57:33.384Z,27.93
2019-05-11T07:59:38.727Z,29.50
2019-05-11T08:01:43.748Z,28.20
2019-05-11T08:03:49.705Z,27.13
2019-05-11T08:05:55.224Z,28.50
2019-05-11T08:08:00.270Z,26.03
2019-05-11T08:10:09.414Z,26.63
2019-05-11T08:12:15.075Z,27.70
2019-05-11T08:14:20.639Z,27.07
2019-05-11T08:16:28.232Z,28.33
2019-05-11T08:18:32.736Z,27.17
2019-05-11T08:20:38.652Z,25.73
2019-05-11T08:22:43.797Z,27.50
2019-05-11T08:24:49.003Z,24.17
2019-05-11T08:26:54.459Z,26.43
2019-05-11T08:28:59.641Z,25.80
2019-05-11T08:31:04.744Z,24.90
2019-05-11T08:33:09.957Z,24.57
2019-05-11T08:35:17.782Z,24.47
2019-05-11T08:37:25.188Z,24.83
2019-05-11T08:39:30.196Z,23.80
2019-05-11T08:41:41.351Z,26.23
2019-05-11T08:43:52.624Z,25.97
2019-05-11T08:46:00.463Z,25.20
2019-05-11T08:48:07.996Z,22.43
2019-05-11T08:50:15.288Z,24.80
2019-05-11T08:52:19.993Z,23.10
2019-05-11T08:54:25.353Z,24.10
2019-05-11T08:56:32.007Z,23.70
2019-05-11T08:58:38.040Z,23.00
2019-05-11T09:00:47.836Z,21.73
2019-05-11T09:02:53.606Z,21.43
2019-05-11T09:04:59.108Z,20.50
2019-05-11T09:07:04.384Z,20.60
2019-05-11T09:09:13.272Z,18.70
2019-05-11T09:11:21.492Z,19.03
2019-05-11T09:13:27.938Z,19.77
2019-05-11T09:15:39.744Z,18.00
2019-05-11T09:17:43.483Z,19.10
2019-05-11T09:19:48.793Z,18.17
2019-05-11T09:21:54.419Z,16.53
2019-05-11T09:23:59.769Z,18.23
2019-05-11T09:26:04.863Z,17.77
2019-05-11T09:28:09.877Z,17.30
2019-05-11T09:30:18.454Z,17.67
2019-05-11T09:32:23.222Z,16.93
2019-05-11T09:34:28.966Z,16.60
2019-05-11T09:36:34.935Z,16.47
2019-05-11T09:38:40.333Z,17.57
2019-05-11T09:40:48.639Z,15.87
2019-05-11T09:42:54.065Z,16.70
2019-05-11T09:44:59.631Z,15.40
2019-05-11T09:47:08.604Z,16.10
2019-05-11T09:49:14.046Z,16.60
2019-05-11T09:51:19.297Z,16.20
2019-05-11T09:53:24.563Z,15.30
2019-05-11T09:55:29.802Z,16.60
2019-05-11T09:57:34.920Z,16.00
2019-05-11T09:59:40.029Z,15.43
2019-05-11T10:01:45.241Z,15.00
2019-05-11T10:03:50.341Z,15.70
2019-05-11T10:05:57.979Z,16.10
2019-05-11T10:08:03.367Z,14.67
2019-05-11T10:10:09.389Z,14.90
2019-05-11T10:12:14.815Z,14.23
2019-05-11T10:14:20.222Z,15.00
2019-05-11T10:16:27.882Z,14.85
2019-05-11T10:18:32.746Z,14.17
2019-05-11T10:20:39.207Z,13.83
2019-05-11T10:22:44.525Z,15.00
2019-05-11T10:24:50.488Z,15.03
2019-05-11T10:26:57.709Z,14.50
2019-05-11T10:29:02.510Z,13.50
2019-05-11T10:31:08.587Z,14.10
2019-05-11T10:33:14.215Z,13.93
2019-05-11T10:35:19.098Z,13.00
2019-05-11T10:37:24.551Z,13.43
2019-05-11T10:39:29.505Z,12.50
2019-05-11T10:41:34.632Z,12.07
2019-05-11T10:43:39.970Z,12.20
2019-05-11T10:45:45.598Z,12.07
2019-05-11T10:47:54.579Z,11.47
2019-05-11T10:49:58.541Z,10.90
2019-05-11T10:52:03.686Z,10.70
2019-05-11T10:54:08.958Z,10.93
2019-05-11T10:56:14.444Z,9.83
2019-05-11T10:58:19.792Z,10.00
2019-05-11T11:00:25.467Z,9.47
2019-05-11T11:02:30.659Z,9.40
2019-05-11T11:04:37.894Z,8.23
2019-05-11T11:06:42.412Z,8.50
2019-05-11T11:08:48.630Z,8.90
2019-05-11T11:10:54.073Z,8.07
2019-05-11T11:12:59.121Z,8.50
2019-05-11T11:15:04.550Z,8.60
2019-05-11T11:17:09.699Z,9.20
2019-05-11T11:19:15.530Z,9.10
2019-05-11T11:21:23.068Z,9.17
2019-05-11T11:23:28.548Z,8.03
2019-05-11T11:25:37.541Z,8.50
2019-05-11T11:27:42.292Z,8.53
2019-05-11T11:29:47.695Z,8.70
2019-05-11T11:31:53.117Z,8.40
2019-05-11T11:33:58.598Z,8.50
2019-05-11T11:36:03.809Z,8.27
2019-05-11T11:38:09.004Z,7.97
2019-05-11T11:40:14.227Z,7.37
2019-05-11T11:42:19.419Z,7.80
2019-05-11T11:44:24.610Z,7.70
2019-05-11T11:46:29.904Z,7.50
2019-05-11T11:48:35.066Z,7.90
2019-05-11T11:50:40.115Z,7.97
2019-05-11T11:52:47.560Z,7.33
2019-05-11T11:54:52.333Z,7.43
2019-05-11T11:56:59.018Z,7.20
2019-05-11T11:59:04.260Z,6.70
2019-05-11T12:01:09.559Z,6.67
2019-05-11T12:03:15.386Z,7.13
2019-05-11T12:05:21.391Z,6.67
2019-05-11T12:07:28.423Z,5.77
2019-05-11T12:09:33.352Z,5.90
2019-05-11T12:11:38.621Z,6.27
2019-05-11T12:13:43.545Z,5.67
2019-05-11T12:15:48.618Z,5.80
2019-05-11T12:17:53.799Z,5.80
2019-05-11T12:19:58.710Z,6.00
2019-05-11T12:22:03.970Z,6.20
2019-05-11T12:24:09.121Z,6.10
2019-05-11T12:26:14.294Z,5.63
2019-05-11T12:28:19.483Z,6.37
2019-05-11T12:30:24.573Z,5.93
2019-05-11T12:32:39.678Z,6.00
2019-05-11T12:34:44.647Z,6.00
2019-05-11T12:36:50.085Z,6.50
2019-05-11T12:38:55.183Z,5.60
2019-05-11T12:41:00.222Z,5.50
2019-05-11T12:43:07.514Z,5.80
2019-05-11T12:45:12.485Z,5.80
2019-05-11T12:47:24.147Z,4.80
2019-05-11T12:49:25.657Z,5.77
2019-05-11T12:51:30.687Z,4.63
2019-05-11T12:53:35.683Z,5.17
2019-05-11T12:55:40.784Z,4.47
2019-05-11T12:57:47.953Z,4.73
2019-05-11T12:59:53.054Z,5.60
2019-05-11T13:01:58.999Z,5.60
2019-05-11T13:04:04.320Z,6.03
2019-05-11T13:06:09.414Z,5.40
2019-05-11T13:08:14.564Z,5.90
2019-05-11T13:10:20.270Z,5.70
2019-05-11T13:12:25.404Z,5.10
2019-05-11T13:14:30.670Z,4.80
2019-05-11T13:16:37.885Z,5.00
2019-05-11T13:18:42.661Z,4.90
2019-05-11T13:20:48.247Z,5.90
2019-05-11T13:22:53.441Z,4.63
2019-05-11T13:24:58.936Z,5.30
2019-05-11T13:27:04.273Z,5.40
2019-05-11T13:29:09.547Z,5.07
2019-05-11T13:31:14.547Z,5.00
2019-05-11T13:33:19.654Z,5.00
2019-05-11T13:35:24.846Z,4.60
2019-05-11T13:37:29.887Z,5.30
2019-05-11T13:39:35.318Z,4.53
2019-05-11T13:41:40.265Z,4.37
2019-05-11T13:43:45.545Z,5.13
2019-05-11T13:45:50.634Z,4.80
2019-05-11T13:47:59.178Z,4.30
2019-05-11T13:50:02.979Z,4.60
2019-05-11T13:52:08.607Z,4.10
2019-05-11T13:54:13.561Z,4.17
2019-05-11T13:56:18.866Z,5.13
2019-05-11T13:58:24.086Z,4.60
2019-05-11T14:00:29.142Z,4.57
2019-05-11T14:02:34.205Z,5.00
2019-05-11T14:04:39.394Z,4.90
2019-05-11T14:06:44.476Z,4.57
2019-05-11T14:08:49.652Z,4.63
2019-05-11T14:10:54.804Z,4.40
2019-05-11T14:13:00.256Z,4.20
2019-05-11T14:15:08.364Z,5.30
2019-05-11T14:17:12.973Z,4.33
2019-05-11T14:19:18.219Z,4.20
2019-05-11T14:21:23.567Z,4.33
2019-05-11T14:23:31.238Z,3.93
2019-05-11T14:25:37.933Z,4.53
2019-05-11T14:27:42.164Z,4.95
2019-05-11T14:29:48.631Z,4.67
2019-05-11T14:31:55.161Z,4.70
2019-05-11T14:34:00.474Z,4.10
2019-05-11T14:36:05.531Z,4.37
2019-05-11T14:38:11.090Z,4.87
2019-05-11T14:40:17.887Z,4.50
2019-05-11T14:42:22.942Z,4.80
2019-05-11T14:44:28.672Z,4.77
2019-05-11T14:46:33.996Z,5.27
2019-05-11T14:48:39.328Z,4.23
2019-05-11T14:50:44.461Z,4.43
2019-05-11T14:52:49.567Z,4.73
2019-05-11T14:54:54.642Z,4.63
2019-05-11T14:56:59.729Z,4.80
2019-05-11T14:59:04.822Z,4.20
2019-05-11T15:01:09.863Z,4.70
2019-05-11T15:03:14.849Z,4.07
2019-05-11T15:05:21.261Z,3.50
2019-05-11T15:07:28.219Z,4.40
2019-05-11T15:09:33.433Z,4.50
2019-05-11T15:11:38.953Z,3.83
2019-05-11T15:13:44.106Z,3.70
2019-05-11T15:15:49.228Z,3.23
2019-05-11T15:17:54.743Z,3.80
2019-05-11T15:20:02.764Z,3.30
2019-05-11T15:22:08.648Z,3.43
2019-05-11T15:24:13.711Z,3.27
2019-05-11T15:26:19.037Z,3.53
2019-05-11T15:28:24.491Z,3.30
2019-05-11T15:30:29.481Z,3.67
2019-05-11T15:32:34.570Z,2.83
2019-05-11T15:34:39.819Z,3.13
2019-05-11T15:36:44.800Z,3.40
2019-05-11T15:38:49.970Z,2.87
2019-05-11T15:40:55.037Z,3.10
2019-05-11T15:43:00.108Z,3.37
2019-05-11T15:45:07.941Z,3.40
2019-05-11T15:47:12.288Z,3.20
2019-05-11T15:49:17.969Z,3.40
2019-05-11T15:51:23.476Z,3.20
2019-05-11T15:53:28.539Z,2.73
2019-05-11T15:55:33.847Z,3.27
2019-05-11T15:57:40.594Z,2.97
2019-05-11T15:59:48.008Z,2.70
2019-05-11T16:01:54.575Z,3.30
2019-05-11T16:03:59.153Z,2.80
2019-05-11T16:06:04.317Z,2.90
2019-05-11T16:08:09.434Z,3.00
2019-05-11T16:10:14.803Z,3.17
2019-05-11T16:12:19.913Z,2.37
2019-05-11T16:14:28.229Z,2.53
2019-05-11T16:16:33.727Z,2.87
2019-05-11T16:18:38.874Z,2.53
2019-05-11T16:20:43.966Z,2.80
2019-05-11T16:22:49.450Z,2.50
2019-05-11T16:24:54.502Z,2.70
2019-05-11T16:26:59.562Z,2.60
2019-05-11T16:29:04.755Z,2.80
2019-05-11T16:31:09.937Z,2.50
2019-05-11T16:33:15.039Z,2.43
2019-05-11T16:35:20.207Z,2.80
2019-05-11T16:37:28.731Z,2.83
2019-05-11T16:39:33.562Z,2.83
2019-05-11T16:41:38.624Z,2.83
2019-05-11T16:43:43.690Z,2.50
2019-05-11T16:45:50.990Z,2.57
2019-05-11T16:47:55.598Z,2.53
2019-05-11T16:50:00.734Z,2.47
2019-05-11T16:52:07.771Z,2.27
2019-05-11T16:54:12.569Z,2.53
2019-05-11T16:56:19.494Z,2.77
2019-05-11T16:58:24.409Z,2.50
2019-05-11T17:00:29.480Z,2.20
2019-05-11T17:02:34.586Z,1.97
2019-05-11T17:04:39.971Z,2.40
2019-05-11T17:06:44.983Z,2.47
2019-05-11T17:08:49.916Z,2.40
2019-05-11T17:10:59.133Z,2.67
2019-05-11T17:13:04.154Z,2.50
2019-05-11T17:15:10.044Z,2.60
2019-05-11T17:17:18.456Z,2.60
2019-05-11T17:19:23.522Z,2.70
2019-05-11T17:21:29.596Z,2.57
2019-05-11T17:23:35.074Z,2.22
2019-05-11T17:25:40.278Z,2.70
2019-05-11T17:27:45.293Z,2.07
2019-05-11T17:29:50.416Z,2.30
2019-05-11T17:31:57.996Z,2.70
2019-05-11T17:34:02.582Z,2.53
2019-05-11T17:36:08.417Z,2.63
2019-05-11T17:38:13.853Z,2.60
2019-05-11T17:40:23.093Z,2.30
2019-05-11T17:42:25.944Z,2.60
2019-05-11T17:44:31.484Z,2.20
2019-05-11T17:46:38.489Z,2.43
2019-05-11T17:48:43.325Z,2.60
2019-05-11T17:50:48.450Z,2.47
2019-05-11T17:52:53.593Z,2.53
2019-05-11T17:54:58.921Z,2.70
2019-05-11T17:57:04.193Z,2.40
2019-05-11T17:59:09.414Z,2.50
2019-05-11T18:01:14.516Z,2.77
2019-05-11T18:03:19.499Z,2.70
2019-05-11T18:05:24.873Z,2.43
2019-05-11T18:07:31.401Z,2.60
2019-05-11T18:09:38.018Z,2.60
2019-05-11T18:11:43.541Z,2.20
2019-05-11T18:13:48.524Z,2.30
2019-05-11T18:15:53.742Z,2.63
2019-05-11T18:17:58.887Z,2.60
2019-05-11T18:20:14.724Z,2.97
2019-05-11T18:22:10.862Z,3.00
2019-05-11T18:24:17.803Z,2.80
2019-05-11T18:26:22.607Z,2.40
2019-05-11T18:28:29.085Z,2.33
2019-05-11T18:30:34.516Z,2.63
2019-05-11T18:32:39.970Z,2.50
2019-05-11T18:34:45.044Z,2.67
2019-05-11T18:36:50.109Z,2.40
2019-05-11T18:38:54.899Z,2.70
2019-05-11T18:41:00.445Z,2.17
2019-05-11T18:43:05.808Z,2.40
2019-05-11T18:45:11.419Z,2.57
2019-05-11T18:47:18.371Z,2.30
2019-05-11T18:49:23.443Z,2.83
2019-05-11T18:51:28.423Z,2.43
2019-05-11T18:53:33.816Z,2.37
2019-05-11T18:55:39.356Z,2.60
2019-05-11T18:57:44.621Z,2.53
2019-05-11T18:59:49.747Z,3.00
2019-05-11T19:01:55.153Z,2.60
2019-05-11T19:04:00.652Z,2.10
2019-05-11T19:06:05.690Z,2.17
2019-05-11T19:08:10.845Z,2.17
2019-05-11T19:10:16.132Z,2.20
2019-05-11T19:12:21.242Z,2.33
2019-05-11T19:14:28.107Z,2.20
2019-05-11T19:16:33.106Z,2.30
2019-05-11T19:18:42.504Z,2.20
2019-05-11T19:20:49.370Z,1.77
2019-05-11T19:22:54.297Z,2.33
2019-05-11T19:24:59.454Z,2.30
2019-05-11T19:27:04.902Z,2.37
2019-05-11T19:29:09.984Z,2.53
2019-05-11T19:31:15.232Z,2.00
2019-05-11T19:33:20.160Z,2.20
2019-05-11T19:35:28.121Z,2.20
2019-05-11T19:37:33.000Z,2.30
2019-05-11T19:39:38.573Z,1.73
2019-05-11T19:41:43.979Z,2.30
2019-05-11T19:43:50.083Z,2.50
2019-05-11T19:45:58.474Z,2.40
2019-05-11T19:48:03.731Z,2.20
2019-05-11T19:50:08.738Z,2.10
2019-05-11T19:52:14.487Z,2.10
2019-05-11T19:54:19.701Z,2.23
2019-05-11T19:56:25.762Z,2.20
2019-05-11T19:58:31.258Z,2.27
2019-05-11T20:00:38.000Z,2.10
2019-05-11T20:02:43.816Z,2.50
2019-05-11T20:04:48.891Z,2.70
2019-05-11T20:06:54.346Z,2.43
2019-05-11T20:09:00.059Z,2.52
2019-05-11T20:11:08.043Z,2.40
2019-05-11T20:13:12.664Z,2.07
2019-05-11T20:15:19.160Z,1.90
2019-05-11T20:17:24.415Z,2.40
2019-05-11T20:19:29.635Z,2.33
2019-05-11T20:21:34.853Z,2.00
2019-05-11T20:23:40.156Z,2.10
2019-05-11T20:25:47.791Z,2.50
2019-05-11T20:27:53.764Z,2.40
2019-05-11T20:30:02.360Z,3.00
2019-05-11T20:32:08.150Z,2.47
2019-05-11T20:34:13.489Z,2.40
2019-05-11T20:36:18.570Z,2.60
2019-05-11T20:38:25.254Z,2.10
2019-05-11T20:40:30.786Z,2.03
2019-05-11T20:42:38.102Z,2.20
2019-05-11T20:44:43.471Z,2.10
2019-05-11T20:46:48.794Z,2.20
2019-05-11T20:48:54.323Z,1.93
2019-05-11T20:51:00.720Z,1.90
2019-05-11T20:53:05.677Z,2.10
2019-05-11T20:55:11.415Z,2.70
2019-05-11T20:57:17.993Z,2.10
2019-05-11T20:59:23.359Z,1.93
2019-05-11T21:01:29.048Z,2.47
2019-05-11T21:03:34.268Z,2.00
2019-05-11T21:05:39.464Z,2.43
2019-05-11T21:07:44.537Z,2.30
2019-05-11T21:09:49.749Z,2.20
2019-05-11T21:11:54.808Z,2.20
2019-05-11T21:13:59.909Z,1.97
2019-05-11T21:16:08.639Z,2.30
2019-05-11T21:18:13.801Z,2.20
2019-05-11T21:20:19.110Z,2.17
2019-05-11T21:22:24.233Z,2.20
2019-05-11T21:24:29.457Z,2.07
2019-05-11T21:26:34.826Z,1.90
2019-05-11T21:28:40.034Z,1.70
2019-05-11T21:30:45.195Z,2.17
2019-05-11T21:32:50.556Z,2.53
2019-05-11T21:34:58.344Z,1.77
2019-05-11T21:37:03.156Z,2.10
2019-05-11T21:39:09.389Z,2.17
2019-05-11T21:41:14.701Z,2.10
2019-05-11T21:43:20.107Z,2.20
2019-05-11T21:45:25.230Z,2.20
2019-05-11T21:47:30.448Z,2.00
2019-05-11T21:49:37.810Z,1.90
2019-05-11T21:51:42.483Z,2.13
2019-05-11T21:53:48.680Z,2.20
2019-05-11T21:55:53.974Z,3.20
2019-05-11T21:57:59.083Z,2.20
2019-05-11T22:00:08.539Z,2.33
2019-05-11T22:02:12.741Z,2.40
2019-05-11T22:04:19.162Z,2.10
2019-05-11T22:06:24.834Z,2.33
2019-05-11T22:08:29.896Z,2.00
2019-05-11T22:10:35.197Z,2.40
2019-05-11T22:12:40.487Z,1.90
2019-05-11T22:14:45.859Z,2.20
2019-05-11T22:16:51.670Z,2.30
2019-05-11T22:18:57.971Z,2.43
2019-05-11T22:21:03.243Z,2.40
2019-05-11T22:23:08.714Z,2.07
2019-05-11T22:25:13.807Z,2.10
2019-05-11T22:27:19.441Z,2.50
2019-05-11T22:29:24.466Z,2.23
2019-05-11T22:31:30.876Z,2.40
2019-05-11T22:33:38.543Z,2.30
2019-05-11T22:35:43.713Z,2.10
2019-05-11T22:37:49.196Z,2.10
2019-05-11T22:39:57.686Z,2.10
2019-05-11T22:42:01.941Z,2.33
2019-05-11T22:44:07.778Z,2.67
2019-05-11T22:46:14.216Z,2.27
2019-05-11T22:48:19.309Z,2.43
2019-05-11T22:50:24.560Z,2.50
2019-05-11T22:52:36.076Z,2.30
2019-05-11T22:54:38.304Z,2.00
2019-05-11T22:56:43.532Z,2.30
2019-05-11T22:58:49.991Z,2.60
2019-05-11T23:00:55.135Z,2.10
2019-05-11T23:03:00.384Z,2.43
2019-05-11T23:05:05.485Z,2.40
2019-05-11T23:07:10.626Z,2.50
2019-05-11T23:09:18.301Z,2.43
2019-05-11T23:11:22.948Z,1.93
2019-05-11T23:13:28.174Z,2.50
2019-05-11T23:15:33.053Z,2.10
2019-05-11T23:17:38.614Z,2.27
2019-05-11T23:19:44.112Z,2.30
2019-05-11T23:21:49.221Z,2.43
2019-05-11T23:23:54.368Z,2.63
2019-05-11T23:25:59.703Z,2.20
2019-05-11T23:28:05.075Z,2.20
2019-05-11T23:30:10.344Z,2.30
2019-05-11T23:32:15.318Z,2.10
2019-05-11T23:34:20.428Z,2.27
2019-05-11T23:36:27.401Z,2.47
2019-05-11T23:38:32.343Z,2.85
2019-05-11T23:40:37.926Z,2.30
2019-05-11T23:42:43.626Z,2.10
2019-05-11T23:44:48.956Z,2.10
2019-05-11T23:46:54.131Z,2.30
2019-05-11T23:48:59.826Z,2.17
2019-05-11T23:51:04.928Z,2.10
2019-05-11T23:53:10.525Z,2.53
2019-05-11T23:55:18.697Z,2.80
2019-05-11T23:57:22.849Z,2.60
2019-05-11T23:59:30.076Z,2.23
